sensor_id;sensor_type;location;lat;lon;timestamp;P1;durP1;ratioP1;P2;durP2;ratioP2
77800;SDS011;66991;50.058;14.454;2023-12-20T00:00:50;5.32;;;2.35;;
77800;SDS011;66991;50.058;14.454;2023-12-20T00:03:16;5.32;;;2.30;;
77800;SDS011;66991;50.058;14.454;2023-12-20T00:05:41;4.45;;;2.03;;
77800;SDS011;66991;50.058;14.454;2023-12-20T00:08:07;4.53;;;1.95;;
77800;SDS011;66991;50.058;14.454;2023-12-20T00:10:32;3.53;;;1.83;;
77800;SDS011;66991;50.058;14.454;2023-12-20T00:12:57;3.88;;;2.00;;
77800;SDS011;66991;50.058;14.454;2023-12-20T00:15:23;4.55;;;2.22;;
77800;SDS011;66991;50.058;14.454;2023-12-20T00:17:48;5.40;;;2.50;;
77800;SDS011;66991;50.058;14.454;2023-12-20T00:20:14;4.38;;;2.03;;
77800;SDS011;66991;50.058;14.454;2023-12-20T00:22:40;4.22;;;2.08;;
77800;SDS011;66991;50.058;14.454;2023-12-20T00:25:06;7.05;;;2.65;;
77800;SDS011;66991;50.058;14.454;2023-12-20T00:27:32;5.45;;;2.22;;
77800;SDS011;66991;50.058;14.454;2023-12-20T00:29:57;4.70;;;1.90;;
77800;SDS011;66991;50.058;14.454;2023-12-20T00:32:23;4.78;;;2.30;;
77800;SDS011;66991;50.058;14.454;2023-12-20T00:34:48;4.30;;;2.60;;
77800;SDS011;66991;50.058;14.454;2023-12-20T00:37:14;4.88;;;2.00;;
77800;SDS011;66991;50.058;14.454;2023-12-20T00:39:39;6.63;;;2.30;;
77800;SDS011;66991;50.058;14.454;2023-12-20T00:42:04;4.10;;;2.10;;
77800;SDS011;66991;50.058;14.454;2023-12-20T00:44:30;5.47;;;2.20;;
77800;SDS011;66991;50.058;14.454;2023-12-20T00:46:55;5.90;;;2.35;;
77800;SDS011;66991;50.058;14.454;2023-12-20T00:49:21;4.57;;;2.30;;
77800;SDS011;66991;50.058;14.454;2023-12-20T00:51:46;4.78;;;2.38;;
77800;SDS011;66991;50.058;14.454;2023-12-20T00:54:12;4.57;;;2.58;;
77800;SDS011;66991;50.058;14.454;2023-12-20T00:56:38;4.82;;;2.40;;
77800;SDS011;66991;50.058;14.454;2023-12-20T00:59:03;5.78;;;3.03;;
77800;SDS011;66991;50.058;14.454;2023-12-20T01:01:29;5.72;;;2.88;;
77800;SDS011;66991;50.058;14.454;2023-12-20T01:03:54;5.70;;;2.50;;
77800;SDS011;66991;50.058;14.454;2023-12-20T01:06:20;4.80;;;2.30;;
77800;SDS011;66991;50.058;14.454;2023-12-20T01:08:47;4.40;;;2.50;;
77800;SDS011;66991;50.058;14.454;2023-12-20T01:11:13;5.93;;;2.63;;
77800;SDS011;66991;50.058;14.454;2023-12-20T01:13:38;6.18;;;2.78;;
77800;SDS011;66991;50.058;14.454;2023-12-20T01:16:03;4.22;;;2.45;;
77800;SDS011;66991;50.058;14.454;2023-12-20T01:18:29;7.63;;;3.03;;
77800;SDS011;66991;50.058;14.454;2023-12-20T01:20:55;5.38;;;2.65;;
77800;SDS011;66991;50.058;14.454;2023-12-20T01:23:20;5.63;;;2.85;;
77800;SDS011;66991;50.058;14.454;2023-12-20T01:25:45;4.53;;;2.65;;
77800;SDS011;66991;50.058;14.454;2023-12-20T01:28:11;4.57;;;2.75;;
77800;SDS011;66991;50.058;14.454;2023-12-20T01:30:36;5.45;;;2.97;;
77800;SDS011;66991;50.058;14.454;2023-12-20T01:33:02;5.82;;;2.72;;
77800;SDS011;66991;50.058;14.454;2023-12-20T01:35:27;5.03;;;2.80;;
77800;SDS011;66991;50.058;14.454;2023-12-20T01:37:52;5.03;;;2.90;;
77800;SDS011;66991;50.058;14.454;2023-12-20T01:40:21;5.78;;;2.40;;
77800;SDS011;66991;50.058;14.454;2023-12-20T01:42:47;5.20;;;2.53;;
77800;SDS011;66991;50.058;14.454;2023-12-20T01:45:13;4.38;;;2.60;;
77800;SDS011;66991;50.058;14.454;2023-12-20T01:47:38;5.68;;;3.00;;
77800;SDS011;66991;50.058;14.454;2023-12-20T01:50:03;6.50;;;3.17;;
77800;SDS011;66991;50.058;14.454;2023-12-20T01:52:30;4.80;;;2.80;;
77800;SDS011;66991;50.058;14.454;2023-12-20T01:54:55;4.75;;;2.60;;
77800;SDS011;66991;50.058;14.454;2023-12-20T01:57:26;6.72;;;3.20;;
77800;SDS011;66991;50.058;14.454;2023-12-20T01:59:52;6.55;;;3.10;;
77800;SDS011;66991;50.058;14.454;2023-12-20T02:02:17;4.70;;;2.63;;
77800;SDS011;66991;50.058;14.454;2023-12-20T02:04:43;6.75;;;2.90;;
77800;SDS011;66991;50.058;14.454;2023-12-20T02:07:08;6.70;;;3.03;;
77800;SDS011;66991;50.058;14.454;2023-12-20T02:09:35;6.28;;;3.10;;
77800;SDS011;66991;50.058;14.454;2023-12-20T02:12:00;7.85;;;3.35;;
77800;SDS011;66991;50.058;14.454;2023-12-20T02:14:25;5.32;;;3.28;;
77800;SDS011;66991;50.058;14.454;2023-12-20T02:16:51;5.68;;;3.33;;
77800;SDS011;66991;50.058;14.454;2023-12-20T02:19:16;5.22;;;2.60;;
77800;SDS011;66991;50.058;14.454;2023-12-20T02:21:42;4.68;;;2.60;;
77800;SDS011;66991;50.058;14.454;2023-12-20T02:24:08;5.53;;;3.08;;
77800;SDS011;66991;50.058;14.454;2023-12-20T02:26:33;6.65;;;3.15;;
77800;SDS011;66991;50.058;14.454;2023-12-20T02:28:59;6.53;;;3.08;;
77800;SDS011;66991;50.058;14.454;2023-12-20T02:31:24;6.97;;;2.90;;
77800;SDS011;66991;50.058;14.454;2023-12-20T02:33:49;7.28;;;3.30;;
77800;SDS011;66991;50.058;14.454;2023-12-20T02:36:15;5.90;;;3.38;;
77800;SDS011;66991;50.058;14.454;2023-12-20T02:38:40;5.68;;;3.05;;
77800;SDS011;66991;50.058;14.454;2023-12-20T02:41:05;7.60;;;3.53;;
77800;SDS011;66991;50.058;14.454;2023-12-20T02:43:31;6.10;;;3.00;;
77800;SDS011;66991;50.058;14.454;2023-12-20T02:45:56;5.30;;;2.78;;
77800;SDS011;66991;50.058;14.454;2023-12-20T02:48:22;5.20;;;3.22;;
77800;SDS011;66991;50.058;14.454;2023-12-20T02:50:47;6.78;;;3.67;;
77800;SDS011;66991;50.058;14.454;2023-12-20T02:53:14;7.68;;;3.15;;
77800;SDS011;66991;50.058;14.454;2023-12-20T02:55:39;5.85;;;3.42;;
77800;SDS011;66991;50.058;14.454;2023-12-20T02:58:05;6.72;;;3.13;;
77800;SDS011;66991;50.058;14.454;2023-12-20T03:00:30;6.88;;;3.60;;
77800;SDS011;66991;50.058;14.454;2023-12-20T03:02:55;5.45;;;3.40;;
77800;SDS011;66991;50.058;14.454;2023-12-20T03:05:21;5.00;;;2.75;;
77800;SDS011;66991;50.058;14.454;2023-12-20T03:07:46;7.28;;;3.58;;
77800;SDS011;66991;50.058;14.454;2023-12-20T03:10:11;7.30;;;2.95;;
77800;SDS011;66991;50.058;14.454;2023-12-20T03:12:37;6.30;;;3.22;;
77800;SDS011;66991;50.058;14.454;2023-12-20T03:15:02;6.18;;;3.55;;
77800;SDS011;66991;50.058;14.454;2023-12-20T03:17:28;8.02;;;3.20;;
77800;SDS011;66991;50.058;14.454;2023-12-20T03:19:53;6.35;;;3.28;;
77800;SDS011;66991;50.058;14.454;2023-12-20T03:22:18;5.82;;;3.15;;
77800;SDS011;66991;50.058;14.454;2023-12-20T03:24:44;4.68;;;2.63;;
77800;SDS011;66991;50.058;14.454;2023-12-20T03:27:09;7.13;;;3.42;;
77800;SDS011;66991;50.058;14.454;2023-12-20T03:29:34;6.22;;;3.15;;
77800;SDS011;66991;50.058;14.454;2023-12-20T03:32:00;4.22;;;2.35;;
77800;SDS011;66991;50.058;14.454;2023-12-20T03:34:26;5.53;;;3.08;;
77800;SDS011;66991;50.058;14.454;2023-12-20T03:36:51;5.70;;;2.67;;
77800;SDS011;66991;50.058;14.454;2023-12-20T03:39:16;4.32;;;2.47;;
77800;SDS011;66991;50.058;14.454;2023-12-20T03:41:42;6.05;;;2.70;;
77800;SDS011;66991;50.058;14.454;2023-12-20T03:44:07;5.93;;;2.95;;
77800;SDS011;66991;50.058;14.454;2023-12-20T03:46:33;5.43;;;2.83;;
77800;SDS011;66991;50.058;14.454;2023-12-20T03:48:58;5.40;;;3.25;;
77800;SDS011;66991;50.058;14.454;2023-12-20T03:51:23;4.55;;;2.58;;
77800;SDS011;66991;50.058;14.454;2023-12-20T03:53:49;4.88;;;2.40;;
77800;SDS011;66991;50.058;14.454;2023-12-20T03:56:14;4.20;;;2.45;;
77800;SDS011;66991;50.058;14.454;2023-12-20T03:58:39;5.50;;;2.78;;
77800;SDS011;66991;50.058;14.454;2023-12-20T04:01:08;7.40;;;2.78;;
77800;SDS011;66991;50.058;14.454;2023-12-20T04:03:35;4.20;;;2.38;;
77800;SDS011;66991;50.058;14.454;2023-12-20T04:06:00;5.28;;;2.83;;
77800;SDS011;66991;50.058;14.454;2023-12-20T04:08:26;5.30;;;2.55;;
77800;SDS011;66991;50.058;14.454;2023-12-20T04:10:51;5.97;;;2.75;;
77800;SDS011;66991;50.058;14.454;2023-12-20T04:13:16;5.25;;;2.63;;
77800;SDS011;66991;50.058;14.454;2023-12-20T04:15:42;5.68;;;2.70;;
77800;SDS011;66991;50.058;14.454;2023-12-20T04:18:07;5.22;;;2.25;;
77800;SDS011;66991;50.058;14.454;2023-12-20T04:20:33;4.75;;;2.50;;
77800;SDS011;66991;50.058;14.454;2023-12-20T04:22:58;5.10;;;2.55;;
77800;SDS011;66991;50.058;14.454;2023-12-20T04:25:24;4.30;;;2.08;;
77800;SDS011;66991;50.058;14.454;2023-12-20T04:27:50;4.13;;;2.05;;
77800;SDS011;66991;50.058;14.454;2023-12-20T04:30:15;4.13;;;1.83;;
77800;SDS011;66991;50.058;14.454;2023-12-20T04:32:40;4.30;;;1.98;;
77800;SDS011;66991;50.058;14.454;2023-12-20T04:35:06;3.85;;;2.03;;
77800;SDS011;66991;50.058;14.454;2023-12-20T04:37:32;7.97;;;2.58;;
77800;SDS011;66991;50.058;14.454;2023-12-20T04:39:57;4.88;;;2.65;;
77800;SDS011;66991;50.058;14.454;2023-12-20T04:42:23;4.82;;;2.20;;
77800;SDS011;66991;50.058;14.454;2023-12-20T04:44:48;5.72;;;2.47;;
77800;SDS011;66991;50.058;14.454;2023-12-20T04:47:13;5.40;;;2.40;;
77800;SDS011;66991;50.058;14.454;2023-12-20T04:49:38;5.32;;;2.22;;
77800;SDS011;66991;50.058;14.454;2023-12-20T04:52:04;5.18;;;2.20;;
77800;SDS011;66991;50.058;14.454;2023-12-20T04:54:30;4.85;;;2.20;;
77800;SDS011;66991;50.058;14.454;2023-12-20T04:56:56;3.40;;;1.98;;
77800;SDS011;66991;50.058;14.454;2023-12-20T04:59:21;5.45;;;2.33;;
77800;SDS011;66991;50.058;14.454;2023-12-20T05:01:47;3.50;;;1.92;;
77800;SDS011;66991;50.058;14.454;2023-12-20T05:04:12;4.55;;;2.35;;
77800;SDS011;66991;50.058;14.454;2023-12-20T05:06:38;4.45;;;1.98;;
77800;SDS011;66991;50.058;14.454;2023-12-20T05:09:03;5.53;;;2.25;;
77800;SDS011;66991;50.058;14.454;2023-12-20T05:11:29;4.93;;;2.20;;
77800;SDS011;66991;50.058;14.454;2023-12-20T05:13:54;4.40;;;2.53;;
77800;SDS011;66991;50.058;14.454;2023-12-20T05:16:19;4.05;;;2.40;;
77800;SDS011;66991;50.058;14.454;2023-12-20T05:18:45;6.25;;;2.85;;
77800;SDS011;66991;50.058;14.454;2023-12-20T05:21:14;3.72;;;1.73;;
77800;SDS011;66991;50.058;14.454;2023-12-20T05:23:39;4.47;;;1.95;;
77800;SDS011;66991;50.058;14.454;2023-12-20T05:26:05;7.63;;;2.72;;
77800;SDS011;66991;50.058;14.454;2023-12-20T05:28:30;5.70;;;2.60;;
77800;SDS011;66991;50.058;14.454;2023-12-20T05:30:55;4.22;;;2.00;;
77800;SDS011;66991;50.058;14.454;2023-12-20T05:33:21;4.07;;;1.88;;
77800;SDS011;66991;50.058;14.454;2023-12-20T05:35:46;4.07;;;2.40;;
77800;SDS011;66991;50.058;14.454;2023-12-20T05:38:11;3.30;;;1.83;;
77800;SDS011;66991;50.058;14.454;2023-12-20T05:40:37;4.82;;;1.90;;
77800;SDS011;66991;50.058;14.454;2023-12-20T05:43:02;4.28;;;2.20;;
77800;SDS011;66991;50.058;14.454;2023-12-20T05:45:28;3.88;;;2.20;;
77800;SDS011;66991;50.058;14.454;2023-12-20T05:47:54;6.07;;;2.85;;
77800;SDS011;66991;50.058;14.454;2023-12-20T05:50:19;4.15;;;2.28;;
77800;SDS011;66991;50.058;14.454;2023-12-20T05:52:46;3.42;;;1.92;;
77800;SDS011;66991;50.058;14.454;2023-12-20T05:55:11;5.47;;;1.95;;
77800;SDS011;66991;50.058;14.454;2023-12-20T05:57:36;3.58;;;1.73;;
77800;SDS011;66991;50.058;14.454;2023-12-20T06:00:02;3.53;;;1.80;;
77800;SDS011;66991;50.058;14.454;2023-12-20T06:02:28;4.72;;;2.03;;
77800;SDS011;66991;50.058;14.454;2023-12-20T06:04:53;3.88;;;1.85;;
77800;SDS011;66991;50.058;14.454;2023-12-20T06:07:19;4.38;;;1.90;;
77800;SDS011;66991;50.058;14.454;2023-12-20T06:09:45;3.97;;;2.13;;
77800;SDS011;66991;50.058;14.454;2023-12-20T06:12:11;8.88;;;4.15;;
77800;SDS011;66991;50.058;14.454;2023-12-20T06:14:36;10.82;;;3.92;;
77800;SDS011;66991;50.058;14.454;2023-12-20T06:17:02;7.90;;;2.78;;
77800;SDS011;66991;50.058;14.454;2023-12-20T06:19:28;6.25;;;2.47;;
77800;SDS011;66991;50.058;14.454;2023-12-20T06:21:53;5.63;;;2.70;;
77800;SDS011;66991;50.058;14.454;2023-12-20T06:24:18;5.95;;;2.15;;
77800;SDS011;66991;50.058;14.454;2023-12-20T06:26:44;4.93;;;1.88;;
77800;SDS011;66991;50.058;14.454;2023-12-20T06:29:09;5.63;;;2.38;;
77800;SDS011;66991;50.058;14.454;2023-12-20T06:31:35;5.55;;;2.53;;
77800;SDS011;66991;50.058;14.454;2023-12-20T06:34:00;5.28;;;2.58;;
77800;SDS011;66991;50.058;14.454;2023-12-20T06:36:26;3.72;;;1.58;;
77800;SDS011;66991;50.058;14.454;2023-12-20T06:38:51;2.60;;;1.55;;
77800;SDS011;66991;50.058;14.454;2023-12-20T06:41:17;3.42;;;1.67;;
77800;SDS011;66991;50.058;14.454;2023-12-20T06:43:42;2.67;;;1.33;;
77800;SDS011;66991;50.058;14.454;2023-12-20T06:46:08;3.85;;;1.30;;
77800;SDS011;66991;50.058;14.454;2023-12-20T06:48:33;2.53;;;1.30;;
77800;SDS011;66991;50.058;14.454;2023-12-20T06:51:00;3.53;;;1.17;;
77800;SDS011;66991;50.058;14.454;2023-12-20T06:53:27;3.10;;;1.55;;
77800;SDS011;66991;50.058;14.454;2023-12-20T06:55:52;3.42;;;1.20;;
77800;SDS011;66991;50.058;14.454;2023-12-20T06:58:17;3.10;;;1.35;;
77800;SDS011;66991;50.058;14.454;2023-12-20T07:00:43;2.60;;;1.50;;
77800;SDS011;66991;50.058;14.454;2023-12-20T07:03:09;2.92;;;1.25;;
77800;SDS011;66991;50.058;14.454;2023-12-20T07:05:34;3.40;;;1.50;;
77800;SDS011;66991;50.058;14.454;2023-12-20T07:08:00;4.55;;;1.55;;
77800;SDS011;66991;50.058;14.454;2023-12-20T07:10:25;1.63;;;0.95;;
77800;SDS011;66991;50.058;14.454;2023-12-20T07:12:51;3.22;;;1.30;;
77800;SDS011;66991;50.058;14.454;2023-12-20T07:15:17;2.55;;;1.67;;
77800;SDS011;66991;50.058;14.454;2023-12-20T07:17:43;2.47;;;1.45;;
77800;SDS011;66991;50.058;14.454;2023-12-20T07:20:09;3.10;;;1.40;;
77800;SDS011;66991;50.058;14.454;2023-12-20T07:22:36;2.78;;;1.10;;
77800;SDS011;66991;50.058;14.454;2023-12-20T07:25:01;4.43;;;1.27;;
77800;SDS011;66991;50.058;14.454;2023-12-20T07:27:27;3.22;;;1.35;;
77800;SDS011;66991;50.058;14.454;2023-12-20T07:29:53;1.85;;;1.00;;
77800;SDS011;66991;50.058;14.454;2023-12-20T07:32:18;2.85;;;1.25;;
77800;SDS011;66991;50.058;14.454;2023-12-20T07:34:44;5.50;;;1.88;;
77800;SDS011;66991;50.058;14.454;2023-12-20T07:37:10;2.13;;;0.98;;
77800;SDS011;66991;50.058;14.454;2023-12-20T07:39:37;2.08;;;1.10;;
77800;SDS011;66991;50.058;14.454;2023-12-20T07:42:02;2.58;;;1.33;;
77800;SDS011;66991;50.058;14.454;2023-12-20T07:44:28;2.42;;;1.23;;
77800;SDS011;66991;50.058;14.454;2023-12-20T07:46:53;1.80;;;1.00;;
77800;SDS011;66991;50.058;14.454;2023-12-20T07:49:19;1.70;;;1.00;;
77800;SDS011;66991;50.058;14.454;2023-12-20T07:51:44;3.22;;;1.48;;
77800;SDS011;66991;50.058;14.454;2023-12-20T07:54:09;2.40;;;1.10;;
77800;SDS011;66991;50.058;14.454;2023-12-20T07:56:35;2.60;;;1.00;;
77800;SDS011;66991;50.058;14.454;2023-12-20T07:59:00;2.05;;;1.05;;
77800;SDS011;66991;50.058;14.454;2023-12-20T08:01:26;2.30;;;1.10;;
77800;SDS011;66991;50.058;14.454;2023-12-20T08:03:51;2.00;;;1.10;;
77800;SDS011;66991;50.058;14.454;2023-12-20T08:06:17;2.22;;;1.00;;
77800;SDS011;66991;50.058;14.454;2023-12-20T08:08:42;2.17;;;1.05;;
77800;SDS011;66991;50.058;14.454;2023-12-20T08:11:10;6.28;;;1.40;;
77800;SDS011;66991;50.058;14.454;2023-12-20T08:13:36;2.40;;;1.17;;
77800;SDS011;66991;50.058;14.454;2023-12-20T08:16:01;2.35;;;1.23;;
77800;SDS011;66991;50.058;14.454;2023-12-20T08:18:28;2.88;;;0.95;;
77800;SDS011;66991;50.058;14.454;2023-12-20T08:20:54;1.10;;;0.68;;
77800;SDS011;66991;50.058;14.454;2023-12-20T08:23:19;2.50;;;0.95;;
77800;SDS011;66991;50.058;14.454;2023-12-20T08:25:46;1.40;;;0.80;;
77800;SDS011;66991;50.058;14.454;2023-12-20T08:28:11;2.97;;;1.00;;
77800;SDS011;66991;50.058;14.454;2023-12-20T08:30:37;2.60;;;1.05;;
77800;SDS011;66991;50.058;14.454;2023-12-20T08:33:02;2.17;;;1.08;;
77800;SDS011;66991;50.058;14.454;2023-12-20T08:35:28;2.22;;;0.82;;
77800;SDS011;66991;50.058;14.454;2023-12-20T08:37:53;1.63;;;0.88;;
77800;SDS011;66991;50.058;14.454;2023-12-20T08:40:19;4.78;;;0.80;;
77800;SDS011;66991;50.058;14.454;2023-12-20T08:42:45;1.90;;;0.88;;
77800;SDS011;66991;50.058;14.454;2023-12-20T08:45:10;1.98;;;1.00;;
77800;SDS011;66991;50.058;14.454;2023-12-20T08:47:36;1.70;;;0.85;;
77800;SDS011;66991;50.058;14.454;2023-12-20T08:50:02;1.98;;;0.80;;
77800;SDS011;66991;50.058;14.454;2023-12-20T08:52:28;2.00;;;0.85;;
77800;SDS011;66991;50.058;14.454;2023-12-20T08:54:54;1.80;;;0.82;;
77800;SDS011;66991;50.058;14.454;2023-12-20T08:57:19;4.78;;;0.88;;
77800;SDS011;66991;50.058;14.454;2023-12-20T08:59:45;1.95;;;0.95;;
77800;SDS011;66991;50.058;14.454;2023-12-20T09:02:11;2.90;;;1.00;;
77800;SDS011;66991;50.058;14.454;2023-12-20T09:04:37;1.70;;;0.80;;
77800;SDS011;66991;50.058;14.454;2023-12-20T09:07:02;2.92;;;1.15;;
77800;SDS011;66991;50.058;14.454;2023-12-20T09:09:28;2.95;;;0.90;;
77800;SDS011;66991;50.058;14.454;2023-12-20T09:11:53;1.67;;;0.70;;
77800;SDS011;66991;50.058;14.454;2023-12-20T09:14:18;1.63;;;0.80;;
77800;SDS011;66991;50.058;14.454;2023-12-20T09:16:44;2.83;;;0.90;;
77800;SDS011;66991;50.058;14.454;2023-12-20T09:19:09;3.45;;;0.80;;
77800;SDS011;66991;50.058;14.454;2023-12-20T09:21:34;1.80;;;0.90;;
77800;SDS011;66991;50.058;14.454;2023-12-20T09:24:00;3.05;;;1.33;;
77800;SDS011;66991;50.058;14.454;2023-12-20T09:26:25;1.75;;;0.93;;
77800;SDS011;66991;50.058;14.454;2023-12-20T09:28:50;2.90;;;1.00;;
77800;SDS011;66991;50.058;14.454;2023-12-20T09:31:16;2.10;;;0.90;;
77800;SDS011;66991;50.058;14.454;2023-12-20T09:33:41;1.67;;;0.75;;
77800;SDS011;66991;50.058;14.454;2023-12-20T09:36:07;2.05;;;0.98;;
77800;SDS011;66991;50.058;14.454;2023-12-20T09:38:32;1.35;;;0.85;;
77800;SDS011;66991;50.058;14.454;2023-12-20T09:40:57;2.15;;;1.10;;
77800;SDS011;66991;50.058;14.454;2023-12-20T09:43:23;2.20;;;1.00;;
77800;SDS011;66991;50.058;14.454;2023-12-20T09:45:49;2.90;;;1.20;;
77800;SDS011;66991;50.058;14.454;2023-12-20T09:48:18;2.45;;;0.90;;
77800;SDS011;66991;50.058;14.454;2023-12-20T09:50:44;1.92;;;1.05;;
77800;SDS011;66991;50.058;14.454;2023-12-20T09:53:10;3.17;;;1.10;;
77800;SDS011;66991;50.058;14.454;2023-12-20T09:55:37;1.58;;;0.82;;
77800;SDS011;66991;50.058;14.454;2023-12-20T09:58:03;2.38;;;1.13;;
77800;SDS011;66991;50.058;14.454;2023-12-20T10:00:28;1.90;;;1.05;;
77800;SDS011;66991;50.058;14.454;2023-12-20T10:02:57;6.15;;;1.00;;
77800;SDS011;66991;50.058;14.454;2023-12-20T10:05:27;2.60;;;0.75;;
77800;SDS011;66991;50.058;14.454;2023-12-20T10:07:56;2.13;;;0.93;;
77800;SDS011;66991;50.058;14.454;2023-12-20T10:10:22;3.33;;;1.05;;
77800;SDS011;66991;50.058;14.454;2023-12-20T10:13:06;2.17;;;0.85;;
77800;SDS011;66991;50.058;14.454;2023-12-20T10:15:34;1.42;;;0.80;;
77800;SDS011;66991;50.058;14.454;2023-12-20T10:18:00;1.70;;;0.90;;
77800;SDS011;66991;50.058;14.454;2023-12-20T10:20:26;1.45;;;0.80;;
77800;SDS011;66991;50.058;14.454;2023-12-20T10:22:54;1.05;;;0.60;;
77800;SDS011;66991;50.058;14.454;2023-12-20T10:25:20;1.63;;;0.85;;
77800;SDS011;66991;50.058;14.454;2023-12-20T10:27:46;1.30;;;0.70;;
77800;SDS011;66991;50.058;14.454;2023-12-20T10:30:11;1.17;;;0.70;;
77800;SDS011;66991;50.058;14.454;2023-12-20T10:32:37;2.88;;;0.77;;
77800;SDS011;66991;50.058;14.454;2023-12-20T10:35:03;2.08;;;0.82;;
77800;SDS011;66991;50.058;14.454;2023-12-20T10:37:29;2.15;;;0.80;;
77800;SDS011;66991;50.058;14.454;2023-12-20T10:39:54;1.98;;;0.55;;
77800;SDS011;66991;50.058;14.454;2023-12-20T10:42:24;1.92;;;0.70;;
77800;SDS011;66991;50.058;14.454;2023-12-20T10:44:51;1.20;;;0.70;;
77800;SDS011;66991;50.058;14.454;2023-12-20T10:47:18;1.50;;;0.60;;
77800;SDS011;66991;50.058;14.454;2023-12-20T10:49:45;1.67;;;0.80;;
77800;SDS011;66991;50.058;14.454;2023-12-20T10:52:11;1.80;;;0.70;;
77800;SDS011;66991;50.058;14.454;2023-12-20T10:54:37;1.33;;;0.65;;
77800;SDS011;66991;50.058;14.454;2023-12-20T10:57:05;1.00;;;0.60;;
77800;SDS011;66991;50.058;14.454;2023-12-20T10:59:31;1.63;;;0.60;;
77800;SDS011;66991;50.058;14.454;2023-12-20T11:01:58;6.05;;;0.95;;
77800;SDS011;66991;50.058;14.454;2023-12-20T11:04:25;1.10;;;0.70;;
77800;SDS011;66991;50.058;14.454;2023-12-20T11:06:56;1.35;;;0.52;;
77800;SDS011;66991;50.058;14.454;2023-12-20T11:17:11;1.95;;;0.80;;
77800;SDS011;66991;50.058;14.454;2023-12-20T11:22:26;2.08;;;0.90;;
77800;SDS011;66991;50.058;14.454;2023-12-20T11:24:53;1.15;;;0.70;;
77800;SDS011;66991;50.058;14.454;2023-12-20T11:27:21;1.00;;;0.63;;
77800;SDS011;66991;50.058;14.454;2023-12-20T11:29:56;2.33;;;0.90;;
77800;SDS011;66991;50.058;14.454;2023-12-20T11:34:55;1.92;;;1.00;;
77800;SDS011;66991;50.058;14.454;2023-12-20T11:37:21;1.23;;;0.80;;
77800;SDS011;66991;50.058;14.454;2023-12-20T11:39:56;3.22;;;1.08;;
77800;SDS011;66991;50.058;14.454;2023-12-20T11:42:25;2.83;;;1.08;;
77800;SDS011;66991;50.058;14.454;2023-12-20T11:44:51;3.30;;;1.15;;
77800;SDS011;66991;50.058;14.454;2023-12-20T11:47:16;4.00;;;1.00;;
77800;SDS011;66991;50.058;14.454;2023-12-20T11:49:44;2.75;;;1.08;;
77800;SDS011;66991;50.058;14.454;2023-12-20T11:52:12;1.88;;;1.05;;
77800;SDS011;66991;50.058;14.454;2023-12-20T11:54:38;2.42;;;1.10;;
77800;SDS011;66991;50.058;14.454;2023-12-20T11:57:03;2.08;;;0.85;;
77800;SDS011;66991;50.058;14.454;2023-12-20T11:59:29;1.48;;;0.80;;
77800;SDS011;66991;50.058;14.454;2023-12-20T12:01:54;1.35;;;0.70;;
77800;SDS011;66991;50.058;14.454;2023-12-20T12:04:25;1.25;;;0.60;;
77800;SDS011;66991;50.058;14.454;2023-12-20T12:06:50;1.73;;;0.68;;
77800;SDS011;66991;50.058;14.454;2023-12-20T12:09:16;1.73;;;0.80;;
77800;SDS011;66991;50.058;14.454;2023-12-20T12:11:42;3.28;;;0.80;;
77800;SDS011;66991;50.058;14.454;2023-12-20T12:14:08;2.08;;;1.00;;
77800;SDS011;66991;50.058;14.454;2023-12-20T12:16:33;1.92;;;0.82;;
77800;SDS011;66991;50.058;14.454;2023-12-20T12:18:58;2.05;;;0.70;;
77800;SDS011;66991;50.058;14.454;2023-12-20T12:21:24;2.17;;;0.90;;
77800;SDS011;66991;50.058;14.454;2023-12-20T12:23:50;3.58;;;1.02;;
77800;SDS011;66991;50.058;14.454;2023-12-20T12:26:15;2.33;;;0.80;;
77800;SDS011;66991;50.058;14.454;2023-12-20T12:28:41;1.90;;;1.10;;
77800;SDS011;66991;50.058;14.454;2023-12-20T12:31:07;5.10;;;1.38;;
77800;SDS011;66991;50.058;14.454;2023-12-20T12:33:33;1.23;;;0.70;;
77800;SDS011;66991;50.058;14.454;2023-12-20T12:36:00;3.08;;;1.40;;
77800;SDS011;66991;50.058;14.454;2023-12-20T12:38:26;2.42;;;1.40;;
77800;SDS011;66991;50.058;14.454;2023-12-20T12:40:52;2.13;;;1.00;;
77800;SDS011;66991;50.058;14.454;2023-12-20T12:43:19;2.00;;;1.13;;
77800;SDS011;66991;50.058;14.454;2023-12-20T12:45:44;3.35;;;1.27;;
77800;SDS011;66991;50.058;14.454;2023-12-20T12:48:10;3.28;;;1.25;;
77800;SDS011;66991;50.058;14.454;2023-12-20T12:50:35;2.15;;;1.00;;
77800;SDS011;66991;50.058;14.454;2023-12-20T12:53:01;3.67;;;1.27;;
77800;SDS011;66991;50.058;14.454;2023-12-20T12:55:27;2.53;;;1.00;;
77800;SDS011;66991;50.058;14.454;2023-12-20T12:57:53;6.63;;;1.60;;
77800;SDS011;66991;50.058;14.454;2023-12-20T13:00:19;4.57;;;1.70;;
77800;SDS011;66991;50.058;14.454;2023-12-20T13:02:44;2.50;;;1.27;;
77800;SDS011;66991;50.058;14.454;2023-12-20T13:05:10;2.75;;;1.33;;
77800;SDS011;66991;50.058;14.454;2023-12-20T13:07:36;2.38;;;1.23;;
77800;SDS011;66991;50.058;14.454;2023-12-20T13:10:02;2.28;;;1.02;;
77800;SDS011;66991;50.058;14.454;2023-12-20T13:12:28;2.70;;;1.00;;
77800;SDS011;66991;50.058;14.454;2023-12-20T13:14:54;2.08;;;1.05;;
77800;SDS011;66991;50.058;14.454;2023-12-20T13:17:20;5.47;;;1.33;;
77800;SDS011;66991;50.058;14.454;2023-12-20T13:19:45;3.92;;;1.30;;
77800;SDS011;66991;50.058;14.454;2023-12-20T13:22:11;2.30;;;1.08;;
77800;SDS011;66991;50.058;14.454;2023-12-20T13:24:36;2.88;;;0.90;;
77800;SDS011;66991;50.058;14.454;2023-12-20T13:27:02;1.38;;;0.85;;
77800;SDS011;66991;50.058;14.454;2023-12-20T13:29:27;3.15;;;1.20;;
77800;SDS011;66991;50.058;14.454;2023-12-20T13:31:53;2.40;;;1.00;;
77800;SDS011;66991;50.058;14.454;2023-12-20T13:34:18;1.88;;;0.80;;
77800;SDS011;66991;50.058;14.454;2023-12-20T13:36:44;2.85;;;1.20;;
77800;SDS011;66991;50.058;14.454;2023-12-20T13:39:15;4.07;;;0.88;;
77800;SDS011;66991;50.058;14.454;2023-12-20T13:41:40;3.97;;;0.85;;
77800;SDS011;66991;50.058;14.454;2023-12-20T13:44:05;3.35;;;0.80;;
77800;SDS011;66991;50.058;14.454;2023-12-20T13:46:31;1.50;;;0.90;;
77800;SDS011;66991;50.058;14.454;2023-12-20T13:48:57;0.95;;;0.60;;
77800;SDS011;66991;50.058;14.454;2023-12-20T13:51:22;2.08;;;1.10;;
77800;SDS011;66991;50.058;14.454;2023-12-20T13:53:48;2.20;;;0.90;;
77800;SDS011;66991;50.058;14.454;2023-12-20T13:56:14;2.80;;;1.00;;
77800;SDS011;66991;50.058;14.454;2023-12-20T13:58:40;1.20;;;0.68;;
77800;SDS011;66991;50.058;14.454;2023-12-20T14:01:06;1.25;;;0.70;;
77800;SDS011;66991;50.058;14.454;2023-12-20T14:03:32;2.63;;;0.82;;
77800;SDS011;66991;50.058;14.454;2023-12-20T14:05:57;3.25;;;0.95;;
77800;SDS011;66991;50.058;14.454;2023-12-20T14:08:23;1.10;;;0.70;;
77800;SDS011;66991;50.058;14.454;2023-12-20T14:10:49;1.40;;;0.70;;
77800;SDS011;66991;50.058;14.454;2023-12-20T14:13:15;1.85;;;0.90;;
77800;SDS011;66991;50.058;14.454;2023-12-20T14:15:40;1.77;;;0.82;;
77800;SDS011;66991;50.058;14.454;2023-12-20T14:18:06;1.90;;;0.80;;
77800;SDS011;66991;50.058;14.454;2023-12-20T14:20:33;1.98;;;1.00;;
77800;SDS011;66991;50.058;14.454;2023-12-20T14:23:02;2.10;;;0.93;;
77800;SDS011;66991;50.058;14.454;2023-12-20T14:25:28;1.30;;;0.80;;
77800;SDS011;66991;50.058;14.454;2023-12-20T14:27:53;2.03;;;0.80;;
77800;SDS011;66991;50.058;14.454;2023-12-20T14:30:18;1.95;;;0.80;;
77800;SDS011;66991;50.058;14.454;2023-12-20T14:32:44;1.63;;;0.93;;
77800;SDS011;66991;50.058;14.454;2023-12-20T14:35:09;1.75;;;0.70;;
77800;SDS011;66991;50.058;14.454;2023-12-20T14:37:35;2.80;;;1.10;;